createdAt,value
2018-07-24T00:01:30.700Z,14.53
2018-07-24T00:03:59.517Z,17.65
2018-07-24T00:06:28.332Z,18.13
2018-07-24T00:08:57.653Z,11.33
2018-07-24T00:11:26.480Z,14.13
2018-07-24T00:13:55.308Z,15.90
2018-07-24T00:16:24.195Z,11.83
2018-07-24T00:18:53.043Z,10.25
2018-07-24T00:21:21.860Z,10.68
2018-07-24T00:23:50.718Z,10.53
2018-07-24T00:26:19.556Z,12.43
2018-07-24T00:28:48.448Z,8.93
2018-07-24T00:31:17.334Z,12.13
2018-07-24T00:33:46.157Z,9.90
2018-07-24T00:36:14.971Z,11.53
2018-07-24T00:38:44.217Z,9.00
2018-07-24T00:41:13.087Z,8.53
2018-07-24T00:43:41.904Z,9.57
2018-07-24T00:46:10.861Z,8.97
2018-07-24T00:48:39.676Z,9.17
2018-07-24T00:51:08.555Z,9.23
2018-07-24T00:53:37.404Z,9.10
2018-07-24T00:56:06.710Z,8.83
2018-07-24T00:58:35.603Z,8.48
2018-07-24T01:01:04.487Z,8.78
2018-07-24T01:03:33.411Z,8.93
2018-07-24T01:06:01.832Z,9.05
2018-07-24T01:08:30.727Z,10.20
2018-07-24T01:10:59.561Z,8.40
2018-07-24T01:13:28.385Z,9.60
2018-07-24T01:15:57.247Z,8.93
2018-07-24T01:18:26.065Z,10.57
2018-07-24T01:20:54.892Z,9.30
2018-07-24T01:23:23.818Z,10.33
2018-07-24T01:25:52.628Z,9.15
2018-07-24T01:28:21.440Z,11.37
2018-07-24T01:30:50.316Z,8.77
2018-07-24T01:33:19.141Z,8.77
2018-07-24T01:35:48.001Z,12.27
2018-07-24T01:38:16.939Z,9.63
2018-07-24T01:40:45.823Z,8.88
2018-07-24T01:43:14.691Z,9.63
2018-07-24T01:45:43.589Z,9.33
2018-07-24T01:48:12.438Z,9.43
2018-07-24T01:50:41.319Z,9.87
2018-07-24T01:53:10.224Z,8.77
2018-07-24T01:55:39.092Z,9.30
2018-07-24T01:58:07.567Z,12.17
2018-07-24T02:00:36.428Z,9.47
2018-07-24T02:03:05.267Z,9.63
2018-07-24T02:05:34.081Z,8.67
2018-07-24T02:08:03.000Z,9.37
2018-07-24T02:10:31.872Z,9.60
2018-07-24T02:13:00.713Z,8.77
2018-07-24T02:15:29.679Z,8.63
2018-07-24T02:17:58.548Z,11.40
2018-07-24T02:20:27.385Z,8.80
2018-07-24T02:22:56.277Z,8.07
2018-07-24T02:25:25.139Z,10.37
2018-07-24T02:27:53.996Z,8.53
2018-07-24T02:30:22.894Z,8.70
2018-07-24T02:32:51.728Z,9.03
2018-07-24T02:35:20.600Z,8.37
2018-07-24T02:37:49.527Z,9.53
2018-07-24T02:40:18.342Z,8.90
2018-07-24T02:42:47.200Z,10.70
2018-07-24T02:45:16.197Z,9.80
2018-07-24T02:47:45.061Z,8.97
2018-07-24T02:50:13.884Z,10.40
2018-07-24T02:52:42.759Z,8.40
2018-07-24T02:55:11.613Z,8.03
2018-07-24T02:57:40.431Z,8.60
2018-07-24T03:00:09.325Z,9.20
2018-07-24T03:02:38.186Z,9.27
2018-07-24T03:05:07.277Z,10.00
2018-07-24T03:07:36.120Z,8.60
2018-07-24T03:10:05.243Z,8.57
2018-07-24T03:12:34.167Z,8.70
2018-07-24T03:15:03.058Z,10.87
2018-07-24T03:17:31.907Z,9.00
2018-07-24T03:20:00.781Z,9.23
2018-07-24T03:22:29.645Z,9.10
2018-07-24T03:24:58.456Z,8.23
2018-07-24T03:27:27.333Z,8.63
2018-07-24T03:29:56.247Z,8.53
2018-07-24T03:32:25.139Z,8.50
2018-07-24T03:34:54.008Z,9.23
2018-07-24T03:37:22.987Z,9.17
2018-07-24T03:39:51.857Z,11.87
2018-07-24T03:42:20.724Z,9.27
2018-07-24T03:44:49.646Z,8.33
2018-07-24T03:47:18.452Z,9.90
2018-07-24T03:49:47.316Z,8.98
2018-07-24T03:52:16.279Z,9.07
2018-07-24T03:54:45.103Z,13.03
2018-07-24T03:57:13.952Z,9.28
2018-07-24T03:59:42.804Z,8.35
2018-07-24T04:02:11.634Z,8.30
2018-07-24T04:04:40.538Z,8.98
2018-07-24T04:07:09.481Z,8.13
2018-07-24T04:09:38.333Z,14.38
2018-07-24T04:12:07.152Z,8.43
2018-07-24T04:14:36.052Z,9.00
2018-07-24T04:17:04.872Z,18.90
2018-07-24T04:19:33.728Z,21.05
2018-07-24T04:22:02.585Z,32.43
2018-07-24T04:24:32.388Z,66.57
2018-07-24T04:27:01.351Z,61.90
2018-07-24T04:29:30.256Z,35.57
2018-07-24T04:31:59.112Z,34.30
2018-07-24T04:34:28.028Z,28.20
2018-07-24T04:36:56.958Z,24.47
2018-07-24T04:39:25.820Z,21.27
2018-07-24T04:41:54.708Z,19.87
2018-07-24T04:44:23.624Z,14.65
2018-07-24T04:46:52.517Z,16.17
2018-07-24T04:49:21.344Z,13.03
2018-07-24T04:51:50.249Z,16.85
2018-07-24T04:54:19.080Z,16.17
2018-07-24T04:56:47.897Z,14.87
2018-07-24T04:59:16.756Z,18.73
2018-07-24T05:01:45.565Z,14.85
2018-07-24T05:04:14.424Z,13.05
2018-07-24T05:06:43.276Z,11.68
2018-07-24T05:09:13.808Z,13.13
2018-07-24T05:11:43.469Z,13.28
2018-07-24T05:14:12.603Z,10.78
2018-07-24T05:16:42.123Z,14.63
2018-07-24T05:19:11.119Z,11.70
2018-07-24T05:21:39.999Z,11.53
2018-07-24T05:24:08.875Z,12.07
2018-07-24T05:26:37.797Z,15.75
2018-07-24T05:29:06.664Z,13.08
2018-07-24T05:31:35.564Z,13.20
2018-07-24T05:34:04.949Z,10.25
2018-07-24T05:36:33.764Z,8.60
2018-07-24T05:39:02.724Z,11.05
2018-07-24T05:41:31.612Z,12.35
2018-07-24T05:44:00.404Z,8.38
2018-07-24T05:46:29.261Z,10.43
2018-07-24T05:48:58.188Z,8.48
2018-07-24T05:51:27.087Z,9.93
2018-07-24T05:53:55.950Z,12.07
2018-07-24T05:56:24.475Z,12.75
2018-07-24T05:58:53.358Z,10.15
2018-07-24T06:01:22.219Z,8.73
2018-07-24T06:03:51.134Z,14.53
2018-07-24T06:06:19.592Z,8.15
2018-07-24T06:08:48.412Z,8.60
2018-07-24T06:11:17.268Z,9.35
2018-07-24T06:13:46.081Z,9.35
2018-07-24T06:16:14.917Z,11.15
2018-07-24T06:18:43.849Z,7.80
2018-07-24T06:21:12.722Z,11.45
2018-07-24T06:23:41.699Z,10.72
2018-07-24T06:26:10.551Z,13.70
2018-07-24T06:28:39.511Z,22.37
2018-07-24T06:31:08.344Z,21.45
2018-07-24T06:33:37.352Z,12.60
2018-07-24T06:36:06.176Z,13.50
2018-07-24T06:38:35.008Z,11.05
2018-07-24T06:41:03.875Z,11.05
2018-07-24T06:43:32.910Z,8.38
2018-07-24T06:46:01.828Z,8.95
2018-07-24T06:48:30.678Z,11.25
2018-07-24T06:50:59.587Z,7.95
2018-07-24T06:53:28.461Z,8.70
2018-07-24T06:55:57.341Z,7.75
2018-07-24T06:58:26.247Z,9.25
2018-07-24T07:00:55.157Z,9.60
2018-07-24T07:03:24.141Z,8.30
2018-07-24T07:05:53.036Z,8.03
2018-07-24T07:08:21.899Z,7.37
2018-07-24T07:10:50.776Z,17.90
2018-07-24T07:13:19.722Z,10.28
2018-07-24T07:15:56.950Z,10.00
2018-07-24T07:18:25.868Z,7.60
2018-07-24T07:20:58.620Z,8.75
2018-07-24T07:23:28.351Z,11.80
2018-07-24T07:25:57.361Z,11.22
2018-07-24T07:28:26.317Z,7.92
2018-07-24T07:30:55.384Z,10.58
2018-07-24T07:33:30.355Z,11.95
2018-07-24T07:35:59.729Z,12.03
2018-07-24T07:38:28.672Z,13.05
2018-07-24T07:40:57.701Z,10.50
2018-07-24T07:43:26.652Z,7.42
2018-07-24T07:45:55.557Z,7.10
2018-07-24T07:48:24.428Z,7.75
2018-07-24T07:50:53.383Z,7.87
2018-07-24T07:53:22.348Z,8.20
2018-07-24T07:55:51.394Z,7.87
2018-07-24T07:58:20.515Z,9.90
2018-07-24T08:00:49.488Z,16.20
2018-07-24T08:03:18.389Z,12.65
2018-07-24T08:05:47.288Z,8.43
2018-07-24T08:08:16.279Z,7.35
2018-07-24T08:10:45.376Z,8.05
2018-07-24T08:13:14.188Z,9.40
2018-07-24T08:15:43.045Z,7.08
2018-07-24T08:18:11.953Z,8.70
2018-07-24T08:20:47.343Z,12.13
2018-07-24T08:23:16.239Z,15.48
2018-07-24T08:25:45.184Z,13.53
2018-07-24T08:28:14.094Z,8.55
2018-07-24T08:30:43.447Z,7.12
2018-07-24T08:33:12.372Z,10.38
2018-07-24T08:35:41.193Z,15.48
2018-07-24T08:38:10.140Z,10.10
2018-07-24T08:40:39.010Z,11.05
2018-07-24T08:43:07.960Z,12.18
2018-07-24T08:45:36.912Z,10.95
2018-07-24T08:48:05.887Z,7.78
2018-07-24T08:50:34.775Z,8.40
2018-07-24T08:53:03.837Z,10.30
2018-07-24T08:55:32.921Z,10.38
2018-07-24T08:58:01.485Z,10.63
2018-07-24T09:00:30.666Z,10.58
2018-07-24T09:02:59.616Z,7.28
2018-07-24T09:05:28.548Z,14.15
2018-07-24T09:07:57.495Z,11.15
2018-07-24T09:10:26.420Z,8.15
2018-07-24T09:12:55.316Z,13.50
2018-07-24T09:15:24.277Z,9.48
2018-07-24T09:17:53.156Z,10.23
2018-07-24T09:20:21.975Z,8.35
2018-07-24T09:22:50.872Z,8.40
2018-07-24T09:25:19.680Z,10.13
2018-07-24T09:27:48.658Z,7.85
2018-07-24T09:30:17.533Z,7.95
2018-07-24T09:32:46.415Z,11.43
2018-07-24T09:35:15.390Z,7.60
2018-07-24T09:37:44.289Z,8.05
2018-07-24T09:40:13.266Z,7.87
2018-07-24T09:42:42.220Z,9.23
2018-07-24T09:45:11.113Z,9.03
2018-07-24T09:47:39.950Z,10.70
2018-07-24T09:50:10.676Z,9.40
2018-07-24T09:52:40.100Z,8.00
2018-07-24T09:55:09.031Z,7.80
2018-07-24T09:57:37.958Z,9.60
2018-07-24T10:00:08.296Z,7.97
2018-07-24T10:02:38.381Z,7.78
2018-07-24T10:05:07.758Z,8.95
2018-07-24T10:07:36.676Z,7.90
2018-07-24T10:10:05.195Z,7.92
2018-07-24T10:12:38.196Z,8.98
2018-07-24T10:15:19.168Z,9.43
2018-07-24T10:17:48.262Z,7.55
2018-07-24T10:20:21.205Z,7.87
2018-07-24T10:22:56.474Z,8.90
2018-07-24T10:28:29.695Z,7.08
2018-07-24T10:30:58.876Z,8.60
2018-07-24T10:33:28.804Z,9.33
2018-07-24T10:35:57.823Z,7.97
2018-07-24T10:38:26.882Z,10.93
2018-07-24T10:40:55.862Z,10.90
2018-07-24T10:43:24.335Z,7.97
2018-07-24T10:45:53.421Z,7.70
2018-07-24T10:48:22.680Z,10.15
2018-07-24T10:50:51.541Z,7.10
2018-07-24T10:53:20.403Z,7.85
2018-07-24T10:55:49.359Z,7.75
2018-07-24T10:58:18.234Z,7.12
2018-07-24T11:00:47.101Z,9.98
2018-07-24T11:03:16.124Z,7.75
2018-07-24T11:05:45.000Z,7.53
2018-07-24T11:08:15.726Z,7.87
2018-07-24T11:10:44.812Z,7.62
2018-07-24T11:13:13.662Z,10.98
2018-07-24T11:15:42.331Z,7.87
2018-07-24T11:18:11.181Z,7.95
2018-07-24T11:20:40.065Z,7.40
2018-07-24T11:23:09.168Z,9.20
2018-07-24T11:25:39.954Z,9.18
2018-07-24T11:28:08.892Z,10.63
2018-07-24T11:30:37.752Z,9.70
2018-07-24T11:33:06.662Z,9.93
2018-07-24T11:35:35.926Z,9.23
2018-07-24T11:38:05.092Z,9.30
2018-07-24T11:40:34.355Z,10.00
2018-07-24T11:43:03.172Z,7.33
2018-07-24T11:45:32.402Z,7.87
2018-07-24T11:48:01.265Z,8.03
2018-07-24T11:50:30.164Z,6.47
2018-07-24T11:52:59.044Z,6.85
2018-07-24T11:55:27.906Z,10.18
2018-07-24T11:57:56.761Z,6.92
2018-07-24T12:00:27.904Z,8.05
2018-07-24T12:02:56.527Z,7.97
2018-07-24T12:05:25.543Z,6.65
2018-07-24T12:07:54.528Z,11.45
2018-07-24T12:10:23.469Z,15.18
2018-07-24T12:12:52.598Z,6.95
2018-07-24T12:15:22.145Z,41.10
2018-07-24T12:17:51.113Z,49.15
2018-07-24T12:20:25.950Z,44.05
2018-07-24T12:22:56.932Z,96.00
2018-07-24T12:25:25.867Z,71.28
2018-07-24T12:28:04.123Z,58.40
2018-07-24T12:30:33.038Z,42.78
2018-07-24T12:33:02.403Z,54.40
2018-07-24T12:35:31.459Z,53.20
2018-07-24T12:38:00.320Z,28.00
2018-07-24T12:40:29.883Z,31.70
2018-07-24T12:42:59.235Z,22.87
2018-07-24T12:45:28.150Z,18.25
2018-07-24T12:47:57.099Z,17.27
2018-07-24T12:50:26.036Z,18.57
2018-07-24T12:52:55.499Z,38.17
2018-07-24T12:55:25.652Z,26.27
2018-07-24T12:57:54.593Z,19.17
2018-07-24T13:00:23.656Z,18.87
2018-07-24T13:02:52.692Z,15.23
2018-07-24T13:05:22.016Z,11.30
2018-07-24T13:07:50.936Z,11.25
2018-07-24T13:10:20.823Z,7.70
2018-07-24T13:12:49.718Z,11.83
2018-07-24T13:15:18.651Z,9.73
2018-07-24T13:17:47.489Z,10.30
2018-07-24T13:20:16.483Z,9.45
2018-07-24T13:22:45.385Z,9.60
2018-07-24T13:25:14.474Z,8.13
2018-07-24T13:27:43.433Z,6.87
2018-07-24T13:30:18.543Z,8.85
2018-07-24T13:32:47.559Z,7.12
2018-07-24T13:35:16.533Z,9.95
2018-07-24T13:37:45.428Z,7.58
2018-07-24T13:40:14.388Z,9.40
2018-07-24T13:42:44.131Z,6.97
2018-07-24T13:45:13.002Z,10.43
2018-07-24T13:47:41.895Z,9.15
2018-07-24T13:50:10.713Z,6.58
2018-07-24T13:52:39.545Z,6.78
2018-07-24T13:55:09.290Z,6.97
2018-07-24T13:57:38.191Z,7.72
2018-07-24T14:00:07.113Z,7.05
2018-07-24T14:02:36.072Z,8.25
2018-07-24T14:05:05.033Z,7.62
2018-07-24T14:07:34.116Z,7.47
2018-07-24T14:10:02.978Z,6.60
2018-07-24T14:12:31.906Z,6.37
2018-07-24T14:15:00.833Z,6.62
2018-07-24T14:17:29.947Z,6.30
2018-07-24T14:20:00.736Z,7.03
2018-07-24T14:22:30.319Z,6.92
2018-07-24T14:24:59.192Z,10.68
2018-07-24T14:27:28.124Z,11.75
2018-07-24T14:29:57.005Z,8.38
2018-07-24T14:32:27.183Z,6.75
2018-07-24T14:34:56.012Z,11.20
2018-07-24T14:37:24.907Z,9.75
2018-07-24T14:39:53.761Z,11.30
2018-07-24T14:42:22.579Z,8.28
2018-07-24T14:44:51.472Z,7.53
2018-07-24T14:47:20.368Z,7.40
2018-07-24T14:49:49.256Z,8.85
2018-07-24T14:52:18.200Z,8.18
2018-07-24T14:54:47.022Z,13.25
2018-07-24T14:57:15.887Z,12.47
2018-07-24T14:59:44.864Z,5.92
2018-07-24T15:02:13.825Z,8.28
2018-07-24T15:04:42.522Z,11.05
2018-07-24T15:07:11.374Z,5.97
2018-07-24T15:09:40.374Z,8.65
2018-07-24T15:12:09.332Z,8.05
2018-07-24T15:14:38.220Z,6.50
2018-07-24T15:17:07.165Z,10.65
2018-07-24T15:19:42.756Z,6.17
2018-07-24T15:22:11.617Z,9.25
2018-07-24T15:24:40.472Z,6.10
2018-07-24T15:27:09.490Z,6.05
2018-07-24T15:29:39.256Z,8.20
2018-07-24T15:32:08.127Z,7.50
2018-07-24T15:34:37.151Z,8.08
2018-07-24T15:37:06.201Z,7.58
2018-07-24T15:39:35.188Z,10.20
2018-07-24T15:42:06.991Z,8.55
2018-07-24T15:44:38.731Z,9.83
2018-07-24T15:47:07.663Z,7.85
2018-07-24T15:49:36.492Z,7.70
2018-07-24T15:52:05.443Z,5.97
2018-07-24T15:54:34.303Z,5.87
2018-07-24T15:57:03.127Z,9.23
2018-07-24T15:59:31.997Z,12.43
2018-07-24T16:02:00.955Z,15.58
2018-07-24T16:04:29.843Z,12.23
2018-07-24T16:06:58.363Z,13.65
2018-07-24T16:09:27.280Z,10.48
2018-07-24T16:11:56.107Z,14.95
2018-07-24T16:14:25.084Z,10.13
2018-07-24T16:16:55.508Z,13.88
2018-07-24T16:19:27.218Z,19.10
2018-07-24T16:21:56.280Z,40.52
2018-07-24T16:24:25.175Z,37.40
2018-07-24T16:26:53.997Z,35.52
2018-07-24T16:29:22.888Z,18.62
2018-07-24T16:31:51.768Z,34.38
2018-07-24T16:34:21.495Z,24.23
2018-07-24T16:36:50.440Z,23.67
2018-07-24T16:39:19.324Z,17.73
2018-07-24T16:41:48.141Z,16.40
2018-07-24T16:44:17.024Z,36.08
2018-07-24T16:46:45.928Z,17.57
2018-07-24T16:49:14.894Z,16.02
2018-07-24T16:51:43.834Z,10.78
2018-07-24T16:54:12.700Z,12.45
2018-07-24T16:56:41.624Z,12.53
2018-07-24T16:59:10.440Z,9.08
2018-07-24T17:01:39.241Z,9.73
2018-07-24T17:04:08.180Z,7.15
2018-07-24T17:06:37.027Z,7.28
2018-07-24T17:09:08.721Z,7.20
2018-07-24T17:11:38.124Z,7.47
2018-07-24T17:14:07.112Z,10.75
2018-07-24T17:16:36.083Z,10.05
2018-07-24T17:19:04.956Z,7.53
2018-07-24T17:21:33.781Z,7.83
2018-07-24T17:24:02.716Z,9.80
2018-07-24T17:26:32.176Z,8.25
2018-07-24T17:29:01.008Z,7.53
2018-07-24T17:31:29.889Z,7.28
2018-07-24T17:33:58.756Z,8.20
2018-07-24T17:36:27.678Z,7.15
2018-07-24T17:38:56.258Z,7.17
2018-07-24T17:41:25.141Z,11.00
2018-07-24T17:43:54.006Z,8.40
2018-07-24T17:46:24.121Z,9.48
2018-07-24T17:48:53.089Z,7.33
2018-07-24T17:51:21.536Z,10.30
2018-07-24T17:53:50.502Z,7.92
2018-07-24T17:56:19.464Z,8.25
2018-07-24T17:58:48.317Z,9.50
2018-07-24T18:01:17.632Z,7.83
2018-07-24T18:03:46.459Z,11.28
2018-07-24T18:06:15.304Z,11.53
2018-07-24T18:08:44.269Z,8.75
2018-07-24T18:11:13.072Z,11.35
2018-07-24T18:13:42.148Z,10.50
2018-07-24T18:16:10.988Z,7.62
2018-07-24T18:18:39.893Z,10.53
2018-07-24T18:21:08.707Z,8.55
2018-07-24T18:23:37.515Z,11.08
2018-07-24T18:26:06.583Z,7.60
2018-07-24T18:28:35.395Z,9.53
2018-07-24T18:31:04.198Z,7.97
2018-07-24T18:33:34.031Z,7.33
2018-07-24T18:36:02.828Z,9.93
2018-07-24T18:38:31.744Z,7.78
2018-07-24T18:41:00.767Z,9.13
2018-07-24T18:43:29.558Z,9.05
2018-07-24T18:45:58.370Z,8.08
2018-07-24T18:48:27.244Z,7.37
2018-07-24T18:50:56.053Z,8.23
2018-07-24T18:53:25.044Z,8.23
2018-07-24T18:55:54.544Z,8.50
2018-07-24T18:58:23.361Z,13.05
2018-07-24T19:00:52.203Z,14.43
2018-07-24T19:03:21.068Z,11.75
2018-07-24T19:05:49.960Z,13.72
2018-07-24T19:08:18.851Z,16.15
2018-07-24T19:10:47.758Z,16.12
2018-07-24T19:13:16.566Z,18.67
2018-07-24T19:15:45.002Z,16.60
2018-07-24T19:18:13.872Z,9.18
2018-07-24T19:20:42.732Z,10.25
2018-07-24T19:23:11.588Z,13.58
2018-07-24T19:25:40.449Z,13.62
2018-07-24T19:28:09.353Z,8.88
2018-07-24T19:30:38.173Z,12.98
2018-07-24T19:33:07.060Z,12.53
2018-07-24T19:35:35.921Z,14.35
2018-07-24T19:38:04.343Z,15.80
2018-07-24T19:40:33.237Z,11.85
2018-07-24T19:43:02.105Z,9.13
2018-07-24T19:45:30.910Z,12.15
2018-07-24T19:47:59.808Z,9.93
2018-07-24T19:50:28.612Z,12.47
2018-07-24T19:52:57.868Z,13.35
2018-07-24T19:55:27.500Z,12.60
2018-07-24T19:57:56.402Z,12.60
2018-07-24T20:00:25.201Z,10.53
2018-07-24T20:02:54.163Z,8.90
2018-07-24T20:05:47.645Z,14.87
2018-07-24T20:08:16.533Z,12.55
2018-07-24T20:10:45.368Z,14.00
2018-07-24T20:13:14.331Z,9.60
2018-07-24T20:15:43.191Z,15.03
2018-07-24T20:18:11.800Z,9.65
2018-07-24T20:20:40.686Z,16.27
2018-07-24T20:23:12.421Z,9.15
2018-07-24T20:25:41.548Z,12.68
2018-07-24T20:28:10.645Z,13.45
2018-07-24T20:30:41.483Z,11.97
2018-07-24T20:33:11.388Z,11.75
2018-07-24T20:35:40.441Z,12.78
2018-07-24T20:38:09.350Z,13.45
2018-07-24T20:40:38.273Z,12.53
2018-07-24T20:43:07.161Z,11.43
2018-07-24T20:45:36.028Z,9.23
2018-07-24T20:48:04.968Z,10.28
2018-07-24T20:50:33.891Z,12.03
2018-07-24T20:53:02.742Z,11.60
2018-07-24T20:55:31.608Z,12.58
2018-07-24T20:58:00.569Z,13.40
2018-07-24T21:00:29.792Z,13.55
2018-07-24T21:02:58.914Z,10.38
2018-07-24T21:05:27.913Z,11.65
2018-07-24T21:07:56.937Z,14.28
2018-07-24T21:10:25.819Z,11.57
2018-07-24T21:12:54.822Z,11.53
2018-07-24T21:15:23.703Z,10.40
2018-07-24T21:17:52.547Z,11.18
2018-07-24T21:20:21.496Z,14.13
2018-07-24T21:22:50.334Z,9.10
2018-07-24T21:25:19.207Z,10.32
2018-07-24T21:27:48.118Z,10.45
2018-07-24T21:30:16.969Z,11.05
2018-07-24T21:32:45.797Z,12.20
2018-07-24T21:35:14.669Z,15.70
2018-07-24T21:37:43.505Z,13.13
2018-07-24T21:40:12.348Z,10.85
2018-07-24T21:42:41.671Z,13.53
2018-07-24T21:45:10.530Z,11.18
2018-07-24T21:47:39.394Z,12.03
2018-07-24T21:50:08.315Z,11.68
2018-07-24T21:52:37.266Z,14.90
2018-07-24T21:55:06.208Z,14.35
2018-07-24T21:57:35.180Z,10.45
2018-07-24T22:00:04.147Z,11.43
2018-07-24T22:02:33.140Z,12.58
2018-07-24T22:05:02.001Z,12.53
2018-07-24T22:07:30.853Z,10.03
2018-07-24T22:09:59.724Z,12.60
2018-07-24T22:12:28.565Z,10.80
2018-07-24T22:14:57.440Z,10.45
2018-07-24T22:17:26.343Z,14.28
2018-07-24T22:19:55.184Z,10.65
2018-07-24T22:22:24.032Z,10.48
2018-07-24T22:24:52.923Z,9.98
2018-07-24T22:27:21.758Z,10.70
2018-07-24T22:29:50.211Z,10.63
2018-07-24T22:32:19.106Z,11.78
2018-07-24T22:34:47.972Z,11.22
2018-07-24T22:37:16.838Z,11.70
2018-07-24T22:39:45.732Z,13.25
2018-07-24T22:42:14.585Z,12.63
2018-07-24T22:44:43.419Z,11.05
2018-07-24T22:47:12.352Z,11.45
2018-07-24T22:49:41.193Z,14.75
2018-07-24T22:52:10.088Z,11.08
2018-07-24T22:54:38.623Z,10.93
2018-07-24T22:57:07.445Z,13.13
2018-07-24T22:59:36.279Z,13.93
2018-07-24T23:02:05.193Z,13.50
2018-07-24T23:04:34.047Z,13.70
2018-07-24T23:07:02.922Z,12.25
2018-07-24T23:09:31.799Z,12.78
2018-07-24T23:12:00.745Z,10.40
2018-07-24T23:14:29.605Z,10.75
2018-07-24T23:16:58.521Z,13.22
2018-07-24T23:19:27.493Z,11.55
2018-07-24T23:21:56.356Z,13.08
2018-07-24T23:24:25.265Z,11.93
2018-07-24T23:26:54.209Z,10.40
2018-07-24T23:29:23.211Z,11.85
2018-07-24T23:31:52.118Z,10.15
2018-07-24T23:34:21.043Z,10.82
2018-07-24T23:36:49.848Z,10.55
2018-07-24T23:39:18.734Z,12.05
2018-07-24T23:41:47.626Z,14.00
2018-07-24T23:44:16.529Z,15.13
2018-07-24T23:46:45.387Z,11.28
2018-07-24T23:49:14.360Z,11.85
2018-07-24T23:51:43.217Z,13.13
2018-07-24T23:54:12.027Z,12.35
2018-07-24T23:56:40.883Z,11.48
2018-07-24T23:59:09.706Z,13.25
